Time;durP1;ratioP1;P1;durP2;ratioP2;P2;SDS_P1;SDS_P2;PMS_P1;PMS_P2;Temp;Humidity;BMP_temperature;BMP_pressure;BME280_temperature;BME280_humidity;BME280_pressure;Samples;Min_cycle;Max_cycle;Signal;HPM_P1;HPM_P2
2023/06/12 00:02:22;;;;;;;;;20.25;18.00;;;;;;;;5033688;28;45235;-57
2023/06/12 00:04:49;;;;;;;;;17.50;14.50;;;;;;;;5033681;28;45427;-55
2023/06/12 00:07:16;;;;;;;;;16.40;16.40;;;;;;;;5033999;28;45464;-58
2023/06/12 00:09:41;;;;;;;;;18.60;18.40;;;;;;;;5037418;28;45296;-58
2023/06/12 00:12:07;;;;;;;;;19.50;17.00;;;;;;;;5037471;28;45582;-58
2023/06/12 00:14:32;;;;;;;;;19.25;18.00;;;;;;;;5035491;28;45999;-57
2023/06/12 00:16:57;;;;;;;;;15.25;14.75;;;;;;;;5036884;28;45213;-58
2023/06/12 00:19:23;;;;;;;;;14.50;14.00;;;;;;;;5036899;28;45294;-58
2023/06/12 00:21:48;;;;;;;;;20.50;17.50;;;;;;;;5037318;28;45211;-58
2023/06/12 00:24:13;;;;;;;;;16.75;15.00;;;;;;;;5036667;28;46502;-58
2023/06/12 00:26:39;;;;;;;;;17.00;16.25;;;;;;;;5036256;28;45264;-58
2023/06/12 00:29:04;;;;;;;;;13.50;11.75;;;;;;;;5036672;28;45445;-57
2023/06/12 00:31:29;;;;;;;;;13.75;11.50;;;;;;;;5036661;28;45580;-57
2023/06/12 00:33:55;;;;;;;;;13.75;12.50;;;;;;;;5036576;28;46398;-58
2023/06/12 00:36:20;;;;;;;;;13.25;13.25;;;;;;;;5036459;28;45487;-57
2023/06/12 00:38:45;;;;;;;;;15.00;14.75;;;;;;;;5036619;28;45400;-58
2023/06/12 00:41:11;;;;;;;;;17.25;14.00;;;;;;;;5036977;28;45825;-59
2023/06/12 00:43:36;;;;;;;;;12.50;12.50;;;;;;;;5035785;28;46026;-59
2023/06/12 00:46:02;;;;;;;;;18.50;17.75;;;;;;;;5036725;28;45372;-58
2023/06/12 00:48:27;;;;;;;;;26.00;22.25;;;;;;;;5035489;28;45957;-59
2023/06/12 00:50:53;;;;;;;;;16.50;14.75;;;;;;;;5036512;28;45533;-58
2023/06/12 00:53:18;;;;;;;;;15.25;13.75;;;;;;;;5036123;28;46504;-59
2023/06/12 00:55:43;;;;;;;;;18.75;18.75;;;;;;;;5034816;28;45405;-58
2023/06/12 00:58:09;;;;;;;;;17.00;17.00;;;;;;;;5036591;28;45427;-58
2023/06/12 01:00:38;;;;;;;;;17.00;15.50;;;;;;;;5049092;28;45507;-55
2023/06/12 01:03:04;;;;;;;;;19.80;16.40;;;;;;;;5056148;28;47460;-57
2023/06/12 01:05:33;;;;;;;;;19.00;15.00;;;;;;;;5056075;28;45525;-59
2023/06/12 01:08:16;;;;;;;;;17.40;16.00;;;;;;;;5056468;28;45286;-58
2023/06/12 01:10:47;;;;;;;;;16.40;14.60;;;;;;;;5056507;28;45819;-57
2023/06/12 01:13:13;;;;;;;;;16.80;16.80;;;;;;;;5055886;28;46419;-57
2023/06/12 01:15:38;;;;;;;;;15.50;15.50;;;;;;;;5056253;28;45343;-57
2023/06/12 01:18:06;;;;;;;;;15.00;15.00;;;;;;;;5056129;28;45313;-56
2023/06/12 01:20:32;;;;;;;;;19.40;16.40;;;;;;;;5070381;28;45565;-59
2023/06/12 01:23:18;;;;;;;;;17.50;16.25;;;;;;;;5056002;28;45672;-58
2023/06/12 01:25:52;;;;;;;;;17.80;17.80;;;;;;;;5055933;28;45876;-59
2023/06/12 01:28:27;;;;;;;;;15.40;15.20;;;;;;;;5055768;28;45404;-57
2023/06/12 01:30:55;;;;;;;;;16.00;15.80;;;;;;;;5055817;28;45504;-57
2023/06/12 01:33:20;;;;;;;;;24.80;21.60;;;;;;;;5055356;28;46718;-58
2023/06/12 01:35:46;;;;;;;;;20.75;17.00;;;;;;;;5071378;28;45367;-58
2023/06/12 01:38:21;;;;;;;;;16.60;15.00;;;;;;;;5071165;28;45368;-57
2023/06/12 01:40:49;;;;;;;;;17.80;17.60;;;;;;;;5071670;28;45317;-58
2023/06/12 01:43:14;;;;;;;;;14.40;14.40;;;;;;;;5070760;28;45392;-60
2023/06/12 01:45:40;;;;;;;;;18.00;16.00;;;;;;;;5055803;28;45429;-57
2023/06/12 01:48:05;;;;;;;;;15.75;15.75;;;;;;;;5040358;27;45758;-58
2023/06/12 01:50:31;;;;;;;;;18.75;16.25;;;;;;;;5054203;28;45612;-59
2023/06/12 01:52:56;;;;;;;;;19.00;17.25;;;;;;;;5055565;28;46223;-57
2023/06/12 01:55:21;;;;;;;;;21.00;18.25;;;;;;;;5055001;28;45324;-58
2023/06/12 01:57:48;;;;;;;;;19.00;16.50;;;;;;;;5055408;28;45355;-57
2023/06/12 02:00:14;;;;;;;;;17.40;16.20;;;;;;;;5055225;28;45521;-57
2023/06/12 02:02:39;;;;;;;;;20.25;20.25;;;;;;;;5055200;28;46369;-59
2023/06/12 02:05:05;;;;;;;;;16.50;16.50;;;;;;;;5055276;28;45366;-57
2023/06/12 02:07:30;;;;;;;;;17.25;17.00;;;;;;;;5055032;28;45405;-57
2023/06/12 02:09:55;;;;;;;;;15.75;15.50;;;;;;;;5055597;28;45554;-59
2023/06/12 02:12:21;;;;;;;;;16.25;16.00;;;;;;;;5054592;28;46007;-59
2023/06/12 02:14:47;;;;;;;;;18.25;16.75;;;;;;;;5055139;28;45305;-57
2023/06/12 02:17:13;;;;;;;;;17.60;17.20;;;;;;;;5055178;28;45172;-58
2023/06/12 02:19:39;;;;;;;;;17.00;16.40;;;;;;;;5055162;28;45174;-58
2023/06/12 02:22:04;;;;;;;;;17.75;17.75;;;;;;;;5054904;28;46132;-57
2023/06/12 02:24:30;;;;;;;;;12.00;12.00;;;;;;;;5054916;28;45483;-58
2023/06/12 02:26:55;;;;;;;;;16.75;15.50;;;;;;;;5053599;28;45353;-56
2023/06/12 02:29:20;;;;;;;;;16.25;15.00;;;;;;;;5055085;28;45482;-56
2023/06/12 02:31:46;;;;;;;;;16.75;15.50;;;;;;;;5054490;28;46426;-57
2023/06/12 02:34:11;;;;;;;;;14.00;12.50;;;;;;;;5054662;28;45393;-55
2023/06/12 02:36:39;;;;;;;;;16.75;14.00;;;;;;;;5054897;28;45810;-57
2023/06/12 02:39:06;;;;;;;;;18.60;15.80;;;;;;;;5055145;28;45396;-57
2023/06/12 02:41:31;;;;;;;;;13.00;12.20;;;;;;;;5054084;28;46530;-57
2023/06/12 02:43:56;;;;;;;;;16.25;14.75;;;;;;;;5054893;28;45340;-55
2023/06/12 02:46:21;;;;;;;;;13.25;11.25;;;;;;;;5054624;28;45278;-57
2023/06/12 02:48:47;;;;;;;;;16.25;14.00;;;;;;;;5054864;28;45542;-56
2023/06/12 02:51:12;;;;;;;;;15.25;14.25;;;;;;;;5054383;28;45749;-55
2023/06/12 02:53:37;;;;;;;;;16.25;16.25;;;;;;;;5054531;28;45392;-56
2023/06/12 02:56:02;;;;;;;;;19.50;17.75;;;;;;;;5054584;28;45329;-56
2023/06/12 02:58:28;;;;;;;;;16.00;13.25;;;;;;;;5054902;28;45708;-58
2023/06/12 03:00:53;;;;;;;;;14.75;12.75;;;;;;;;5054004;28;45758;-54
2023/06/12 03:03:20;;;;;;;;;16.50;12.25;;;;;;;;5053170;28;45322;-55
2023/06/12 03:05:46;;;;;;;;;15.00;12.40;;;;;;;;5054035;28;45319;-56
2023/06/12 03:08:12;;;;;;;;;13.75;12.00;;;;;;;;5054797;28;45494;-57
2023/06/12 03:10:38;;;;;;;;;12.40;11.40;;;;;;;;5054203;28;46076;-57
2023/06/12 03:13:03;;;;;;;;;18.00;16.25;;;;;;;;5054445;28;45328;-56
2023/06/12 03:15:28;;;;;;;;;12.00;11.50;;;;;;;;5053945;28;45276;-55
2023/06/12 03:17:53;;;;;;;;;17.50;13.75;;;;;;;;5054301;28;45318;-58
2023/06/12 03:20:19;;;;;;;;;15.25;13.00;;;;;;;;5054345;28;45510;-56
2023/06/12 03:22:44;;;;;;;;;18.75;17.00;;;;;;;;5053954;28;45412;-58
2023/06/12 03:25:10;;;;;;;;;14.00;10.75;;;;;;;;5015954;28;45860;-56
2023/06/12 03:27:36;;;;;;;;;15.20;15.20;;;;;;;;5034186;28;45369;-55
2023/06/12 03:30:01;;;;;;;;;19.25;16.00;;;;;;;;5033556;28;45591;-56
2023/06/12 03:32:26;;;;;;;;;17.00;13.25;;;;;;;;5033801;28;45155;-56
2023/06/12 03:34:52;;;;;;;;;16.00;13.75;;;;;;;;5032714;28;45329;-56
2023/06/12 03:37:18;;;;;;;;;14.50;14.25;;;;;;;;5034233;28;45356;-57
2023/06/12 03:39:43;;;;;;;;;15.25;15.25;;;;;;;;5034031;28;46188;-56
2023/06/12 03:42:08;;;;;;;;;16.25;14.00;;;;;;;;5033287;28;45243;-57
2023/06/12 03:44:34;;;;;;;;;12.25;12.25;;;;;;;;5037837;28;45277;-55
2023/06/12 03:46:59;;;;;;;;;14.00;14.00;;;;;;;;5037587;28;45285;-56
2023/06/12 03:49:24;;;;;;;;;15.00;12.50;;;;;;;;5037125;28;46551;-56
2023/06/12 03:51:50;;;;;;;;;15.25;14.25;;;;;;;;5037376;28;45426;-57
2023/06/12 03:54:17;;;;;;;;;12.25;12.25;;;;;;;;5037182;28;45446;-57
2023/06/12 03:56:42;;;;;;;;;14.60;12.60;;;;;;;;5037223;28;45507;-56
2023/06/12 03:59:07;;;;;;;;;15.50;14.50;;;;;;;;5035547;28;45779;-57
2023/06/12 04:01:32;;;;;;;;;17.25;16.75;;;;;;;;5052997;28;45383;-56
2023/06/12 04:03:58;;;;;;;;;19.00;18.00;;;;;;;;5057662;28;45321;-55
2023/06/12 04:06:25;;;;;;;;;16.25;13.75;;;;;;;;5057185;28;45819;-56
2023/06/12 04:08:53;;;;;;;;;17.20;16.00;;;;;;;;5057001;28;46172;-55
2023/06/12 04:11:19;;;;;;;;;17.20;17.20;;;;;;;;5056844;28;45326;-57
2023/06/12 04:13:44;;;;;;;;;14.50;14.50;;;;;;;;5057411;28;45272;-55
2023/06/12 04:16:10;;;;;;;;;15.00;13.50;;;;;;;;5056770;28;45566;-56
2023/06/12 04:18:37;;;;;;;;;22.50;17.00;;;;;;;;5072545;28;45440;-56
2023/06/12 04:21:03;;;;;;;;;17.20;13.60;;;;;;;;5056754;28;45439;-56
2023/06/12 04:23:29;;;;;;;;;16.60;14.40;;;;;;;;5056971;28;45261;-56
2023/06/12 04:26:06;;;;;;;;;20.00;17.50;;;;;;;;5031638;28;45979;-55
2023/06/12 04:28:35;;;;;;;;;18.20;16.40;;;;;;;;5036514;28;45356;-57
2023/06/12 04:31:01;;;;;;;;;14.60;14.60;;;;;;;;5035121;28;45432;-56
2023/06/12 04:33:30;;;;;;;;;15.00;15.00;;;;;;;;5036636;28;45415;-54
2023/06/12 04:35:56;;;;;;;;;15.80;14.60;;;;;;;;5037034;28;45178;-57
2023/06/12 04:38:23;;;;;;;;;14.40;14.40;;;;;;;;5036296;28;45614;-57
2023/06/12 04:40:51;;;;;;;;;16.40;13.20;;;;;;;;5036554;28;45314;-56
2023/06/12 04:43:19;;;;;;;;;16.20;15.20;;;;;;;;5036155;28;45795;-57
2023/06/12 04:45:44;;;;;;;;;13.80;13.80;;;;;;;;5036637;28;45403;-56
2023/06/12 04:48:09;;;;;;;;;14.00;12.75;;;;;;;;5036357;28;46476;-56
2023/06/12 04:50:36;;;;;;;;;13.00;11.25;;;;;;;;5035915;28;45337;-57
2023/06/12 04:53:01;;;;;;;;;15.20;13.20;;;;;;;;5036390;28;45292;-57
2023/06/12 04:55:28;;;;;;;;;15.50;12.25;;;;;;;;5034940;28;45762;-57
2023/06/12 04:57:54;;;;;;;;;21.00;18.20;;;;;;;;5036109;28;45409;-57
2023/06/12 05:00:19;;;;;;;;;12.75;12.75;;;;;;;;5056104;28;45458;-58
2023/06/12 05:02:46;;;;;;;;;16.00;14.00;;;;;;;;5071528;28;45333;-57
2023/06/12 05:05:11;;;;;;;;;18.40;14.80;;;;;;;;5056300;28;45602;-57
2023/06/12 05:07:37;;;;;;;;;13.25;13.25;;;;;;;;5055996;28;45681;-58
2023/06/12 05:10:02;;;;;;;;;16.75;12.75;;;;;;;;5056265;28;45524;-56
2023/06/12 05:12:28;;;;;;;;;16.00;14.00;;;;;;;;5054802;28;45456;-56
2023/06/12 05:14:53;;;;;;;;;16.75;13.00;;;;;;;;5056376;28;45334;-56
2023/06/12 05:17:18;;;;;;;;;14.25;10.25;;;;;;;;5056147;28;46753;-57
2023/06/12 05:19:43;;;;;;;;;14.25;12.00;;;;;;;;5055440;28;45448;-56
2023/06/12 05:22:09;;;;;;;;;14.00;13.75;;;;;;;;5055975;28;45903;-55
2023/06/12 05:24:34;;;;;;;;;12.00;12.00;;;;;;;;5056326;28;45612;-57
2023/06/12 05:27:00;;;;;;;;;14.00;13.50;;;;;;;;5055926;28;46404;-57
2023/06/12 05:29:26;;;;;;;;;14.75;12.75;;;;;;;;5055826;28;45309;-57
2023/06/12 05:31:51;;;;;;;;;14.00;13.40;;;;;;;;5055890;28;45249;-58
2023/06/12 05:34:17;;;;;;;;;17.25;14.50;;;;;;;;5056020;28;45192;-58
2023/06/12 05:36:42;;;;;;;;;12.50;12.50;;;;;;;;5055485;28;46071;-59
2023/06/12 05:39:07;;;;;;;;;16.50;15.25;;;;;;;;5055730;28;45178;-57
2023/06/12 05:41:32;;;;;;;;;13.75;11.00;;;;;;;;5055532;28;45292;-57
2023/06/12 05:43:58;;;;;;;;;11.50;10.00;;;;;;;;5055956;28;45308;-57
2023/06/12 05:46:23;;;;;;;;;15.00;14.25;;;;;;;;5018304;28;46363;-58
2023/06/12 05:48:49;;;;;;;;;17.75;15.00;;;;;;;;5035402;28;45307;-56
2023/06/12 05:51:14;;;;;;;;;22.80;19.40;;;;;;;;5035688;28;45301;-56
2023/06/12 05:53:44;;;;;;;;;13.75;13.75;;;;;;;;5050918;28;45543;-57
2023/06/12 05:56:10;;;;;;;;;15.60;14.80;;;;;;;;5035049;28;45928;-56
2023/06/12 05:58:36;;;;;;;;;20.80;15.40;;;;;;;;5035344;28;45747;-58
2023/06/12 06:01:03;;;;;;;;;22.00;18.50;;;;;;;;5043343;28;45477;-57
2023/06/12 06:03:33;;;;;;;;;11.80;10.20;;;;;;;;5070788;28;45578;-58
2023/06/12 06:05:59;;;;;;;;;13.80;13.20;;;;;;;;5044740;28;47222;-58
2023/06/12 06:08:25;;;;;;;;;17.00;16.00;;;;;;;;5050390;28;45540;-54
2023/06/12 06:10:50;;;;;;;;;16.40;15.40;;;;;;;;5055395;28;45373;-53
2023/06/12 06:13:15;;;;;;;;;16.50;13.75;;;;;;;;5054678;28;45275;-56
2023/06/12 06:15:40;;;;;;;;;16.00;14.50;;;;;;;;5055482;28;46141;-55
2023/06/12 06:18:06;;;;;;;;;13.00;11.25;;;;;;;;5054864;28;45827;-55
2023/06/12 06:20:33;;;;;;;;;12.00;12.00;;;;;;;;5055535;28;45220;-55
2023/06/12 06:22:58;;;;;;;;;13.80;11.80;;;;;;;;5055221;28;45609;-57
2023/06/12 06:25:24;;;;;;;;;11.00;11.00;;;;;;;;5055133;28;46048;-58
2023/06/12 06:27:49;;;;;;;;;14.50;14.25;;;;;;;;5055218;28;45199;-55
2023/06/12 06:30:14;;;;;;;;;9.75;9.75;;;;;;;;5055033;28;45146;-56
2023/06/12 06:32:40;;;;;;;;;11.50;11.25;;;;;;;;5055398;28;45162;-57
2023/06/12 06:35:05;;;;;;;;;13.50;11.00;;;;;;;;5054696;28;46071;-58
2023/06/12 06:37:31;;;;;;;;;12.75;12.75;;;;;;;;5054846;28;45387;-59
2023/06/12 06:39:56;;;;;;;;;13.50;12.25;;;;;;;;5055429;28;45744;-58
2023/06/12 06:42:21;;;;;;;;;11.25;10.00;;;;;;;;5054959;28;45569;-56
2023/06/12 06:44:49;;;;;;;;;12.00;11.00;;;;;;;;5054402;28;46184;-58
2023/06/12 06:47:14;;;;;;;;;15.00;14.20;;;;;;;;5037480;28;45420;-56
2023/06/12 06:49:39;;;;;;;;;9.25;9.25;;;;;;;;5050406;28;45371;-58
2023/06/12 06:52:05;;;;;;;;;10.50;10.50;;;;;;;;5050025;28;45379;-59
2023/06/12 06:54:30;;;;;;;;;13.50;9.00;;;;;;;;5054297;28;46122;-56
2023/06/12 06:56:56;;;;;;;;;9.50;8.25;;;;;;;;5054443;28;45580;-57
2023/06/12 06:59:22;;;;;;;;;11.00;9.20;;;;;;;;5054631;28;45392;-56
2023/06/12 07:01:47;;;;;;;;;10.00;10.00;;;;;;;;5036316;28;45643;-56
2023/06/12 07:04:12;;;;;;;;;11.25;10.00;;;;;;;;5080836;28;46731;-56
2023/06/12 07:06:38;;;;;;;;;10.00;8.50;;;;;;;;5060841;28;45354;-55
2023/06/12 07:09:03;;;;;;;;;11.25;11.25;;;;;;;;5054352;28;45395;-57
2023/06/12 07:11:28;;;;;;;;;12.00;12.00;;;;;;;;5024901;28;45559;-57
2023/06/12 07:13:54;;;;;;;;;14.25;14.25;;;;;;;;5067667;28;29459;-58
2023/06/12 07:16:19;;;;;;;;;10.75;10.50;;;;;;;;5066692;28;29529;-58
2023/06/12 07:18:45;;;;;;;;;11.00;10.25;;;;;;;;5066596;28;29259;-59
2023/06/12 07:21:10;;;;;;;;;12.50;11.50;;;;;;;;5048209;28;29799;-58
2023/06/12 07:23:35;;;;;;;;;12.50;11.75;;;;;;;;5061452;28;29259;-58
2023/06/12 07:26:01;;;;;;;;;12.25;11.00;;;;;;;;5053632;28;29887;-57
2023/06/12 07:28:26;;;;;;;;;9.75;9.75;;;;;;;;5064223;28;29671;-57
2023/06/12 07:30:51;;;;;;;;;16.00;14.75;;;;;;;;5067465;28;29684;-57
2023/06/12 07:33:17;;;;;;;;;15.50;14.00;;;;;;;;5065774;28;29534;-56
2023/06/12 07:35:42;;;;;;;;;16.25;13.25;;;;;;;;5058955;28;45456;-57
2023/06/12 07:38:07;;;;;;;;;13.75;11.75;;;;;;;;5051599;28;45443;-55
2023/06/12 07:40:33;;;;;;;;;11.25;10.50;;;;;;;;5052564;28;45530;-58
2023/06/12 07:42:58;;;;;;;;;10.50;10.50;;;;;;;;5051530;28;45587;-56
2023/06/12 07:45:24;;;;;;;;;16.75;13.50;;;;;;;;5052561;28;45361;-56
2023/06/12 07:47:49;;;;;;;;;15.25;14.25;;;;;;;;5052538;28;45462;-56
2023/06/12 07:50:15;;;;;;;;;15.50;15.25;;;;;;;;5051942;28;45596;-58
2023/06/12 07:52:40;;;;;;;;;16.75;16.25;;;;;;;;5052174;28;46703;-57
2023/06/12 07:55:06;;;;;;;;;13.00;13.00;;;;;;;;5052557;28;45421;-59
2023/06/12 07:57:31;;;;;;;;;13.50;13.50;;;;;;;;5051948;28;45408;-58
2023/06/12 07:59:57;;;;;;;;;16.75;14.75;;;;;;;;5051178;28;45496;-56
2023/06/12 08:02:27;;;;;;;;;13.75;10.75;;;;;;;;5050580;28;45439;-59
2023/06/12 08:04:53;;;;;;;;;13.00;11.20;;;;;;;;5052237;28;45416;-58
2023/06/12 08:07:19;;;;;;;;;15.25;14.25;;;;;;;;5052305;28;45447;-58
2023/06/12 08:09:44;;;;;;;;;15.00;12.25;;;;;;;;5052144;28;45445;-56
2023/06/12 08:12:12;;;;;;;;;16.00;14.50;;;;;;;;5022938;28;46651;-57
2023/06/12 08:14:38;;;;;;;;;15.00;12.80;;;;;;;;5050587;28;45438;-57
2023/06/12 08:17:04;;;;;;;;;15.00;13.60;;;;;;;;5051921;28;45323;-60
2023/06/12 08:19:32;;;;;;;;;14.00;13.00;;;;;;;;5052477;28;45575;-57
2023/06/12 08:21:57;;;;;;;;;14.40;12.40;;;;;;;;5051245;28;47745;-58
2023/06/12 08:24:23;;;;;;;;;17.50;16.25;;;;;;;;5067668;28;45401;-57
2023/06/12 08:26:48;;;;;;;;;14.75;13.25;;;;;;;;5050488;28;45387;-58
2023/06/12 08:29:14;;;;;;;;;14.25;14.25;;;;;;;;5053874;28;45615;-56
2023/06/12 08:31:40;;;;;;;;;13.50;12.25;;;;;;;;5054060;28;45367;-59
2023/06/12 08:34:06;;;;;;;;;13.40;12.40;;;;;;;;5054743;28;45457;-56
2023/06/12 08:36:31;;;;;;;;;14.50;14.50;;;;;;;;5055713;28;45421;-59
2023/06/12 08:38:56;;;;;;;;;11.50;11.50;;;;;;;;5054163;28;45276;-57
2023/06/12 08:41:21;;;;;;;;;15.50;13.50;;;;;;;;5054645;28;46566;-59
2023/06/12 08:43:47;;;;;;;;;13.50;12.50;;;;;;;;5054548;28;45344;-58
2023/06/12 08:46:12;;;;;;;;;16.50;14.00;;;;;;;;5054991;28;45408;-58
2023/06/12 08:48:38;;;;;;;;;15.25;14.00;;;;;;;;5054729;28;45258;-55
2023/06/12 08:51:03;;;;;;;;;16.25;14.50;;;;;;;;5052223;28;46039;-58
2023/06/12 08:53:28;;;;;;;;;16.00;12.25;;;;;;;;5070568;28;45329;-57
2023/06/12 08:55:55;;;;;;;;;17.50;16.75;;;;;;;;5054292;28;45276;-58
2023/06/12 08:58:21;;;;;;;;;14.40;14.40;;;;;;;;5055127;28;45611;-59
2023/06/12 09:00:46;;;;;;;;;20.00;16.00;;;;;;;;5051081;28;45372;-58
2023/06/12 09:03:12;;;;;;;;;16.00;14.00;;;;;;;;5049443;28;45505;-58
2023/06/12 09:05:38;;;;;;;;;15.25;15.25;;;;;;;;5068289;28;45436;-60
2023/06/12 09:08:04;;;;;;;;;16.75;14.50;;;;;;;;5052087;28;45592;-57
2023/06/12 09:10:31;;;;;;;;;16.60;16.00;;;;;;;;5052953;28;47282;-57
2023/06/12 09:12:56;;;;;;;;;17.40;16.00;;;;;;;;5042668;28;46717;-57
2023/06/12 09:15:22;;;;;;;;;20.25;19.25;;;;;;;;5046247;28;45362;-57
2023/06/12 09:17:47;;;;;;;;;19.50;16.75;;;;;;;;5053424;28;45393;-58
2023/06/12 09:20:17;;;;;;;;;20.25;17.25;;;;;;;;5052549;28;45536;-57
2023/06/12 09:22:42;;;;;;;;;14.60;13.80;;;;;;;;5052982;28;45498;-57
2023/06/12 09:25:08;;;;;;;;;16.25;13.25;;;;;;;;5053347;28;45758;-56
2023/06/12 09:27:42;;;;;;;;;17.75;16.75;;;;;;;;5046445;28;46006;-57
2023/06/12 09:30:08;;;;;;;;;19.60;17.80;;;;;;;;5043092;28;45545;-59
2023/06/12 09:32:33;;;;;;;;;17.50;17.50;;;;;;;;5050997;28;45439;-59
2023/06/12 09:34:58;;;;;;;;;19.25;18.25;;;;;;;;5052832;28;45568;-59
2023/06/12 09:37:24;;;;;;;;;18.25;13.75;;;;;;;;5036055;28;45508;-59
2023/06/12 09:39:49;;;;;;;;;15.25;14.00;;;;;;;;5050158;28;45907;-56
2023/06/12 09:42:17;;;;;;;;;15.75;15.75;;;;;;;;5036876;28;45521;-55
2023/06/12 09:44:42;;;;;;;;;20.80;17.40;;;;;;;;5031129;28;45414;-57
2023/06/12 09:47:08;;;;;;;;;18.25;17.00;;;;;;;;5050993;28;45361;-58
2023/06/12 09:49:34;;;;;;;;;15.25;15.25;;;;;;;;5048243;28;47774;-55
2023/06/12 09:52:02;;;;;;;;;18.20;17.60;;;;;;;;5050873;28;45814;-57
2023/06/12 09:54:27;;;;;;;;;18.80;17.20;;;;;;;;5059157;28;45518;-56
2023/06/12 09:56:53;;;;;;;;;22.00;17.50;;;;;;;;5057142;28;29840;-58
2023/06/12 09:59:19;;;;;;;;;23.40;19.60;;;;;;;;5048438;28;29850;-57
2023/06/12 10:01:45;;;;;;;;;21.50;20.50;;;;;;;;5063245;28;29719;-57
2023/06/12 10:04:10;;;;;;;;;18.80;18.80;;;;;;;;5060299;28;45431;-57
2023/06/12 10:06:36;;;;;;;;;21.25;20.25;;;;;;;;5035975;28;45456;-56
2023/06/12 10:09:01;;;;;;;;;21.25;19.25;;;;;;;;5069409;28;47785;-56
2023/06/12 10:11:27;;;;;;;;;18.75;17.75;;;;;;;;5044342;28;45807;-56
2023/06/12 10:13:53;;;;;;;;;21.00;18.50;;;;;;;;5052328;28;45342;-57
2023/06/12 10:16:18;;;;;;;;;24.80;23.40;;;;;;;;5068767;28;45426;-56
2023/06/12 10:18:43;;;;;;;;;24.75;20.50;;;;;;;;5052333;28;46119;-56
2023/06/12 10:21:09;;;;;;;;;26.25;22.00;;;;;;;;5047498;28;45365;-56
2023/06/12 10:23:34;;;;;;;;;22.00;17.25;;;;;;;;5032434;28;45731;-58
2023/06/12 10:26:00;;;;;;;;;19.50;18.75;;;;;;;;5042041;28;45671;-58
2023/06/12 10:28:25;;;;;;;;;22.00;20.75;;;;;;;;5052129;28;45663;-59
2023/06/12 10:31:12;;;;;;;;;21.25;17.75;;;;;;;;5053487;28;45347;-57
2023/06/12 10:33:58;;;;;;;;;21.00;20.80;;;;;;;;5053844;28;45385;-57
2023/06/12 10:36:23;;;;;;;;;20.80;20.20;;;;;;;;5051703;28;45475;-58
2023/06/12 10:38:48;;;;;;;;;25.75;24.75;;;;;;;;5045621;28;45852;-59
2023/06/12 10:41:28;;;;;;;;;25.00;22.75;;;;;;;;5050145;28;45497;-60
2023/06/12 10:43:54;;;;;;;;;11.20;11.20;;;;;;;;5052241;28;45424;-59
2023/06/12 10:46:19;;;;;;;;;27.25;23.50;;;;;;;;5051986;28;45308;-58
2023/06/12 10:48:45;;;;;;;;;25.50;23.50;;;;;;;;5033752;28;46130;-59
2023/06/12 10:51:11;;;;;;;;;29.20;26.80;;;;;;;;5033215;28;45629;-60
2023/06/12 10:53:36;;;;;;;;;27.75;27.75;;;;;;;;5037484;28;45885;-59
2023/06/12 10:56:01;;;;;;;;;26.00;23.75;;;;;;;;5038463;28;45449;-60
2023/06/12 10:58:27;;;;;;;;;27.50;25.75;;;;;;;;5051470;28;46406;-54
2023/06/12 11:00:52;;;;;;;;;25.50;24.00;;;;;;;;5052803;28;45402;-55
2023/06/12 11:03:29;;;;;;;;;32.00;30.00;;;;;;;;5051949;28;45373;-57
2023/06/12 11:05:55;;;;;;;;;25.00;23.40;;;;;;;;5050281;28;45570;-57
2023/06/12 11:08:21;;;;;;;;;25.60;24.80;;;;;;;;5033894;28;45526;-58
2023/06/12 11:10:46;;;;;;;;;23.75;20.75;;;;;;;;5034238;28;45640;-56
2023/06/12 11:13:11;;;;;;;;;29.75;26.75;;;;;;;;5033215;28;45371;-53
2023/06/12 11:15:43;;;;;;;;;31.00;27.25;;;;;;;;5033805;28;45353;-57
2023/06/12 11:18:08;;;;;;;;;26.00;26.00;;;;;;;;5033136;28;46307;-58
2023/06/12 11:20:33;;;;;;;;;32.75;29.50;;;;;;;;5034216;28;45440;-57
2023/06/12 11:23:00;;;;;;;;;25.50;24.25;;;;;;;;5033161;28;45551;-60
2023/06/12 11:25:26;;;;;;;;;27.00;26.60;;;;;;;;5033253;28;45609;-56
2023/06/12 11:27:52;;;;;;;;;28.25;28.00;;;;;;;;5034364;28;46111;-56
2023/06/12 11:30:17;;;;;;;;;24.00;23.75;;;;;;;;5032691;28;45395;-55
2023/06/12 11:32:45;;;;;;;;;28.25;23.50;;;;;;;;5034595;28;45369;-55
2023/06/12 11:35:11;;;;;;;;;27.20;25.20;;;;;;;;5034355;28;45314;-58
2023/06/12 11:37:37;;;;;;;;;34.40;31.20;;;;;;;;5034396;28;46215;-55
2023/06/12 11:40:10;;;;;;;;;36.00;30.00;;;;;;;;4989773;28;45582;-58
2023/06/12 11:42:39;;;;;;;;;28.80;28.80;;;;;;;;5035828;28;45481;-52
2023/06/12 11:45:11;;;;;;;;;34.60;30.80;;;;;;;;5033608;28;45378;-58
2023/06/12 11:47:37;;;;;;;;;32.20;30.40;;;;;;;;5053152;28;47709;-59
2023/06/12 11:50:03;;;;;;;;;30.60;25.40;;;;;;;;5048538;28;45570;-54
2023/06/12 11:52:29;;;;;;;;;25.40;23.00;;;;;;;;5052082;28;45430;-53
2023/06/12 11:55:00;;;;;;;;;30.00;26.75;;;;;;;;5049492;28;45378;-61
2023/06/12 11:57:28;;;;;;;;;32.60;30.60;;;;;;;;5048497;28;48231;-61
2023/06/12 11:59:56;;;;;;;;;28.20;25.80;;;;;;;;5049652;28;45479;-55
2023/06/12 12:02:31;;;;;;;;;29.40;28.20;;;;;;;;5030094;28;45813;-53
2023/06/12 12:04:58;;;;;;;;;28.80;26.60;;;;;;;;5046083;28;45893;-60
2023/06/12 12:07:24;;;;;;;;;25.80;24.00;;;;;;;;5049750;28;46014;-54
2023/06/12 12:10:00;;;;;;;;;26.80;24.60;;;;;;;;5068341;28;45447;-58
2023/06/12 12:12:26;;;;;;;;;28.80;26.40;;;;;;;;5050217;28;45522;-51
2023/06/12 12:14:51;;;;;;;;;28.00;27.00;;;;;;;;5052494;28;45538;-57
2023/06/12 12:17:16;;;;;;;;;28.25;26.00;;;;;;;;5053403;28;45701;-59
2023/06/12 12:19:42;;;;;;;;;27.75;26.25;;;;;;;;5050994;28;46457;-59
2023/06/12 12:22:10;;;;;;;;;27.00;24.00;;;;;;;;5050312;28;45459;-59
2023/06/12 12:24:36;;;;;;;;;24.80;22.40;;;;;;;;5053700;28;45585;-59
2023/06/12 12:27:02;;;;;;;;;24.75;22.50;;;;;;;;5049505;28;47418;-53
2023/06/12 12:29:27;;;;;;;;;26.25;22.00;;;;;;;;5049560;28;45983;-60
2023/06/12 12:31:52;;;;;;;;;22.50;22.50;;;;;;;;5052448;28;45447;-60
2023/06/12 12:34:18;;;;;;;;;27.25;23.25;;;;;;;;5015757;28;45510;-60
2023/06/12 12:36:44;;;;;;;;;23.75;23.75;;;;;;;;5042974;28;46079;-59
2023/06/12 12:39:09;;;;;;;;;28.80;27.00;;;;;;;;5053603;28;45425;-59
2023/06/12 12:41:35;;;;;;;;;31.00;27.75;;;;;;;;5045334;28;45628;-61
2023/06/12 12:44:00;;;;;;;;;23.75;22.75;;;;;;;;5052648;28;45536;-61
2023/06/12 12:46:25;;;;;;;;;20.50;19.75;;;;;;;;5034228;28;46494;-61
2023/06/12 12:48:51;;;;;;;;;23.50;22.50;;;;;;;;5034983;28;45346;-59
2023/06/12 12:51:17;;;;;;;;;20.25;19.50;;;;;;;;5008144;28;46100;-61
2023/06/12 12:53:42;;;;;;;;;29.50;28.25;;;;;;;;5054931;28;45566;-59
2023/06/12 12:56:07;;;;;;;;;27.50;26.00;;;;;;;;5053608;28;46419;-60
2023/06/12 12:58:32;;;;;;;;;26.50;26.00;;;;;;;;5053373;28;45720;-63
2023/06/12 13:01:00;;;;;;;;;27.50;25.25;;;;;;;;5054632;28;45380;-59
2023/06/12 13:03:31;;;;;;;;;30.80;29.60;;;;;;;;5054641;28;45388;-60
2023/06/12 13:05:57;;;;;;;;;33.40;28.20;;;;;;;;5054662;28;46926;-58
2023/06/12 13:08:22;;;;;;;;;26.25;24.25;;;;;;;;5051298;28;45472;-59
2023/06/12 13:10:47;;;;;;;;;30.00;25.75;;;;;;;;5032733;28;45747;-58
2023/06/12 13:13:13;;;;;;;;;25.00;24.00;;;;;;;;5033515;28;45931;-58
2023/06/12 13:15:39;;;;;;;;;24.20;23.00;;;;;;;;5033092;28;46372;-55
2023/06/12 13:18:04;;;;;;;;;29.50;28.50;;;;;;;;5032938;28;45384;-59
2023/06/12 13:20:29;;;;;;;;;24.00;24.00;;;;;;;;5039347;28;45472;-59
2023/06/12 13:22:55;;;;;;;;;21.00;19.75;;;;;;;;5054273;28;45482;-59
2023/06/12 13:25:20;;;;;;;;;21.25;21.25;;;;;;;;5054662;28;46375;-60
2023/06/12 13:27:46;;;;;;;;;19.50;19.00;;;;;;;;5053918;28;45439;-61
2023/06/12 13:30:11;;;;;;;;;21.25;20.25;;;;;;;;5054890;28;45325;-59
2023/06/12 13:32:36;;;;;;;;;25.75;23.50;;;;;;;;5053098;28;45560;-57
2023/06/12 13:35:02;;;;;;;;;22.75;22.75;;;;;;;;5053957;28;46873;-61
2023/06/12 13:37:27;;;;;;;;;23.75;23.25;;;;;;;;5049420;28;45457;-59
2023/06/12 13:39:52;;;;;;;;;22.25;22.25;;;;;;;;5024911;28;45318;-60
2023/06/12 13:42:18;;;;;;;;;28.25;25.50;;;;;;;;5034310;28;45466;-58
2023/06/12 13:44:43;;;;;;;;;22.50;22.50;;;;;;;;5039030;28;46609;-60
2023/06/12 13:47:08;;;;;;;;;20.00;18.50;;;;;;;;5054569;28;45770;-57
2023/06/12 13:49:34;;;;;;;;;24.50;23.75;;;;;;;;5052791;28;45525;-58
2023/06/12 13:51:59;;;;;;;;;25.25;23.00;;;;;;;;5032906;28;46211;-58
2023/06/12 13:54:25;;;;;;;;;17.75;16.50;;;;;;;;5046710;28;46063;-58
2023/06/12 13:56:50;;;;;;;;;21.00;19.50;;;;;;;;5057725;28;45348;-59
2023/06/12 13:59:16;;;;;;;;;23.25;22.75;;;;;;;;5068590;28;30222;-58
2023/06/12 14:01:42;;;;;;;;;26.25;23.50;;;;;;;;5068299;28;29691;-60
2023/06/12 14:04:07;;;;;;;;;19.60;19.40;;;;;;;;5068054;28;29989;-58
2023/06/12 14:06:33;;;;;;;;;20.50;20.50;;;;;;;;5068469;28;29716;-59
2023/06/12 14:08:59;;;;;;;;;28.40;24.80;;;;;;;;5078354;28;29705;-56
2023/06/12 14:11:24;;;;;;;;;25.60;24.60;;;;;;;;5068166;28;29643;-59
2023/06/12 14:13:51;;;;;;;;;25.00;24.00;;;;;;;;5053611;28;46217;-59